Amargosa Valley, Nevada Weather observations

Data are for observation ending at time listed.
 Day   Time    Ave.   Ave.  Ave.  Vector   Max.   Stn.    Total    Solar   Ave.  
  of    of     Air    Rel.  Wind   Wind    Wind   Baro.  Precip.   Rad.    Soil  
Year   Day     Temp.  Hum.  Speed  Dir.    Gust   Pres.                    Temp. 
2015   (PST)    F      %     mph   deg.    mph     mb.     in.     W/m2     F   
------------------------------------------------------------------------------
 145    6:30   66.4    56    1.4    35      3.1   927.3    0.00     310    74.0
 145    6:40   67.4    54    1.5    34      3.7   927.4    0.00     343    74.0
 145    6:50   68.5    51    1.5    57      3.0   927.6    0.00     379    73.9
 145    7:00   69.2    49    1.5   313      5.3   927.7    0.00     407    73.8
 145    7:10   69.7    48    1.2   238      2.9   927.8    0.00     442    73.7
 145    7:20   70.2    47    1.1   296      2.9   928.0    0.00     472    73.7
 145    7:30   70.4    46    1.5   192      3.2   928.1    0.00     503    73.7
 145    7:40   70.9    45    1.0   263      2.9   928.0    0.00     534    73.6
 145    7:50   71.9    43    1.0   146      2.6   928.0    0.00     564    73.5
 145    8:00   73.2    40    1.1    98      2.4   928.1    0.00     595    73.5
 145    8:10   72.6    42    1.8   199      3.2   928.2    0.00     622    73.5
 145    8:20   73.0    40    1.6   106      4.5   928.3    0.00     651    73.5
 145    8:30   74.1    38    1.2    25      3.1   928.3    0.00     680    73.4
 145    8:40   75.0    36    2.0   175      5.0   928.3    0.00     703    73.4
 145    8:50   74.6    37    2.4   123      5.4   928.3    0.00     731    73.4
 145    9:00   75.4    35    2.6   145      7.3   928.2    0.00     754    73.4
 145    9:10   74.9    36    3.3   183      6.5   928.3    0.00     779    73.4
 145    9:20   75.2    35    2.2   155      5.8   928.2    0.00     801    73.4
 145    9:30   76.6    34    2.7   215      6.5   928.1    0.00     819    73.4
 145    9:40   76.3    34    3.8   204      7.7   928.1    0.00     840    73.4
 145    9:50   76.7    33    4.8   113      9.6   928.1    0.00     859    73.4
 145   10:00   76.9    33    3.2   128      6.7   928.1    0.00     876    73.5
 145   10:10   77.6    32    4.1   170     10.4   928.1    0.00     889    73.6
 145   10:20   77.5    32    6.0   164      9.9   928.0    0.00     905    73.6
 145   10:30   77.8    32    3.3   239      8.0   928.0    0.00     916    73.7
 145   10:40   78.6    31    5.3   163     12.2   928.0    0.00     926    73.8
 145   10:50   78.8    30    3.4   132      7.9   927.9    0.00     937    73.9
 145   11:00   79.3    29    4.8   199      8.8   927.9    0.00     944    74.0
 145   11:10   79.8    28    5.6   204     10.3   927.8    0.00     948    74.1
 145   11:20   80.0    28    2.6    65     10.7   927.8    0.00     951    74.2
 145   11:30   80.9    26    4.8   204     10.3   927.6    0.00     954    74.3
 145   11:40   81.1    27    4.8   132     10.3   927.6    0.00     956    74.4
 145   11:50   80.9    27    5.4   178      9.8   927.5    0.00     961    74.5
 145   12:00   81.9    25    6.4   127     11.8   927.5    0.00     958    74.7
 145   12:10   82.7    24    6.3   173     13.3   927.3    0.00     956    74.8
 145   12:20   82.5    25    5.7   150     12.3   927.3    0.00     965    74.9
 145   12:30   82.7    23    3.9   138      9.3   927.2    0.00    1002    75.1
 145   12:40   83.2    23    6.9   171     12.6   927.1    0.00     651    75.3
 145   12:50   82.3    24    5.2   176      9.6   927.0    0.00     347    75.5
 145   13:00   83.0    23    2.8   211      8.6   926.8    0.00     876    75.7
 145   13:10   83.7    23    4.7   224     13.5   926.6    0.00     943    75.9
 145   13:20   84.3    23    6.9   168     18.4   926.5    0.00     900    76.2
 145   13:30   84.0    23    8.2   178     14.2   926.5    0.00     887    76.5
 145   13:40   83.3    24    8.1   198     18.8   926.3    0.00     479    76.8
 145   13:50   84.4    23    8.6   163     16.7   926.3    0.00     877    77.1
 145   14:00   84.3    23    8.4   180     17.0   926.0    0.00     660    77.4
 145   14:10   84.7    22    8.1   171     15.1   925.9    0.00     806    77.7
 145   14:20   84.9    22    6.4   171     14.6   925.8    0.00     727    78.0
 145   14:30   84.5    22   10.1   166     16.3   925.7    0.00     398    78.3
 145   14:40   85.6    20    9.8   188     17.9   925.4    0.00     824    78.6
 145   14:50   86.3    20   10.4   193     17.3   925.3    0.00     609    78.9
 145   15:00   84.7    20    8.1   188     16.9   925.2    0.00     367    79.2
 145   15:10   85.3    20    8.1   196     15.3   924.9    0.00     200    79.5
 145   15:20   85.9    19    9.5   188     16.0   924.7    0.00     102    79.7
 145   15:30   86.0    18    9.6   174     19.6   924.6    0.00      77    79.9
 145   15:40   85.8    18   10.5   191     19.7   924.4    0.00      76    80.1
 145   15:50   86.1    17    9.9   186     19.4   924.3    0.00      78    80.3
 145   16:00   86.1    17   12.1   180     18.6   924.3    0.00      64    80.4
 145   16:10   85.3    17    9.3   176     15.8   924.1    0.00      74    80.5
 145   16:20   85.7    16   10.7   196     19.4   923.9    0.00      92    80.7
 145   16:30   85.2    16    8.2   196     13.2   923.9    0.00      82    80.7
 145   16:40   85.1    16   10.9   185     17.5   923.8    0.00      82    80.8
 145   16:50   84.8    16   10.0   186     18.0   923.6    0.00      71    80.9
 145   17:00   84.6    16   11.3   175     17.7   923.5    0.00      54    81.0
 145   17:10   84.4    16   11.2   178     15.3   923.4    0.00      45    81.0
 145   17:20   84.5    16   10.8   179     17.9   923.4    0.00      43    81.1
 145   17:30   84.2    16   10.8   171     16.7   923.5    0.00      43    81.1
 145   17:40   84.1    16    9.7   174     15.7   923.5    0.00      51    81.1
 145   17:50   84.2    16   11.8   173     18.1   923.5    0.00      51    81.1
 145   18:00   84.3    16   11.9   173     17.6   923.5    0.00      53    81.1
 145   18:10   84.0    16   12.0   174     17.5   923.6    0.00      38    81.2
 145   18:20   83.6    17   11.2   172     18.6   923.6    0.00      22    81.2
 145   18:30   83.3    17   12.8   174     18.6   923.6    0.00      17    81.2
 145   18:40   82.9    17   11.9   174     17.9   923.6    0.00      12    81.2
 145   18:50   82.5    17   11.3   175     17.2   923.7    0.00       7    81.2
 145   19:00   82.0    17   11.0   175     15.6   923.7    0.00       3    81.2
 145   19:10   81.4    18    9.5   174     13.2   923.7    0.00       0    81.1
 145   19:20   80.9    18    9.5   175     14.5   923.7    0.00       0    81.1
 145   19:30   80.0    19    7.3   174      9.9   923.7    0.00       0    81.1
 145   19:40   79.6    19    7.2   172      9.9   923.9    0.00       0    81.1
 145   19:50   79.0    19    6.0   168      8.8   924.0    0.00       0    81.1
 145   20:00   78.0    20    4.5   157      6.4   924.1    0.00       0    81.0
 145   20:10   77.2    20    3.6   136      4.8   924.3    0.00       0    81.0
 145   20:20   76.9    20    3.6   118      4.5   924.4    0.00       0    80.9
 145   20:30   76.6    20    3.7   106      4.7   924.5    0.00       0    80.9
 145   20:40   76.3    20    3.5   109      5.0   924.6    0.00       0    80.9
 145   20:50   76.2    20    2.6   134      4.7   924.6    0.00       0    80.8
 145   21:00   76.0    22    2.6   298      9.1   924.9    0.00       0    80.7
 145   21:10   77.7    24    3.3   309      8.7   925.1    0.00       0    80.7
 145   21:20   77.1    27    2.8   319      6.1   925.2    0.00       0    80.6
 145   21:30   75.8    31    4.1   302     11.2   925.4    0.00       0    80.6
 145   21:40   74.6    33    9.4   307     17.2   925.6    0.00       0    80.5
 145   21:50   73.7    35    7.4   306     12.3   925.8    0.00       0    80.5
 145   22:00   72.3    38    9.0   306     14.7   925.8    0.00       0    80.4
 145   22:10   71.6    39    8.4   306     13.1   925.9    0.00       0    80.3
 145   22:20   71.2    40    9.5   306     15.7   925.9    0.00       0    80.3
 145   22:30   70.9    40    8.3   306     14.8   925.9    0.00       0    80.2
 145   22:40   71.0    40    8.8   305     14.2   926.0    0.00       0    80.2
 145   22:50   71.0    39    8.0   307     12.3   926.1    0.00       0    80.1
 145   23:00   70.8    39    5.2   310     10.2   926.2    0.00       0    80.0
 145   23:10   70.5    39    1.8   322      5.1   926.1    0.00       0    79.9
 145   23:20   70.1    39    3.0   316      5.2   926.1    0.00       0    79.9
 145   23:30   70.2    38    3.3   315      6.2   926.1    0.00       0    79.8
 145   23:40   70.5    36    5.6   307     10.2   926.1    0.00       0    79.7
 145   23:50   69.9    36    5.8   305      9.4   926.1    0.00       0    79.6
 146    0:00   69.5    38    6.4   306      9.1   926.1    0.00       0    79.6
 146    0:10   69.3    37    5.6   304      8.7   926.1    0.00       0    79.5
 146    0:20   68.3    40    1.3   283      3.5   926.2    0.00       0    79.4
 146    0:30   68.3    40    4.5   314      8.9   926.1    0.00       0    79.3
 146    0:40   69.0    39    3.5   316      6.6   926.0    0.00       0    79.2
 146    0:50   68.8    40    5.6   307      9.3   926.1    0.00       0    79.2
 146    1:00   68.2    40    2.5   319      6.4   926.1    0.00       0    79.1
 146    1:10   67.1    42    2.1   315      4.5   926.3    0.00       0    79.0
 146    1:20   66.7    42    2.7   316      4.5   926.3    0.00       0    78.9
 146    1:30   66.4    43    2.7   316      5.7   926.2    0.00       0    78.8
 146    1:40   65.9    44    1.9   318      3.9   926.2    0.00       0    78.7
 146    1:50   65.4    44    2.3   316      4.2   926.2    0.00       0    78.6
 146    2:00   65.6    44    4.9   307      7.7   926.2    0.00       0    78.5
 146    2:10   65.6    44    5.5   308      8.2   926.2    0.00       0    78.5
 146    2:20   64.1    46    1.0   345      3.2   926.3    0.00       0    78.4
 146    2:30   63.0    47    0.6   346      2.0   926.2    0.00       0    78.3
 146    2:40   61.9    48    1.1   320      2.9   926.2    0.00       0    78.2
 146    2:50   61.8    49    0.4   338      1.7   926.2    0.00       0    78.1
 146    3:00   62.8    48    0.6    26      2.5   926.3    0.00       0    78.0
 146    3:10   63.5    48    0.4     8      2.5   926.4    0.00       0    77.9
 146    3:20   63.0    49    1.2   321      3.3   926.4    0.00       0    77.8
 146    3:30   62.7    50    0.1   346      1.1   926.5    0.00       0    77.7
 146    3:40   62.9    50    1.4    31      3.7   926.5    0.00       0    77.6
 146    3:50   63.2    49    0.2     0      1.2   926.5    0.00       0    77.5
 146    4:00   62.8    49    0.0     2      0.9   926.6    0.00       0    77.4
 146    4:10   62.1    50    0.0   351      0.8   926.6    0.00       0    77.3
 146    4:20   61.2    52    0.1    14      1.2   926.6    0.00       0    77.3
 146    4:30   61.1    52    0.7    30      2.1   926.7    0.00       2    77.1
 146    4:40   60.8    52    0.4    35      1.8   926.7    0.00       5    77.0
 146    4:50   60.1    53    0.7   331      2.9   926.8    0.00      11    76.9
 146    5:00   60.1    54    0.8    44      2.6   926.8    0.00      18    76.8
 146    5:10   60.1    53    0.4    33      1.7   926.8    0.00      27    76.7
 146    5:20   59.5    54    0.4    33      1.8   926.9    0.00      34    76.6
 146    5:30   60.1    54    0.1    21      1.5   926.9    0.00      84    76.5
 146    5:40   62.3    51    1.3    56      2.7   927.1    0.00     139    76.4
 146    5:50   64.5    48    1.2    61      2.7   927.2    0.00     169    76.3
 146    6:00   66.7    45    0.5    42      1.7   927.4    0.00     201    76.2
 146    6:10   68.3    42    0.1    62      1.8   927.5    0.00     236    76.1
 146    6:20   68.7    42    1.0    95      2.6   927.6    0.00     265    76.0

Return to Amargosa Valley, Nevada graphs page.


Western Regional Climate Center,wrcc@dri.edu